createdAt,value
2023-05-01T00:00:53.220Z,15.00
2023-05-01T00:03:20.403Z,15.09
2023-05-01T00:05:47.779Z,15.18
2023-05-01T00:08:15.426Z,15.23
2023-05-01T00:10:42.468Z,15.27
2023-05-01T00:13:09.598Z,15.30
2023-05-01T00:15:36.910Z,15.33
2023-05-01T00:18:03.854Z,15.34
2023-05-01T00:20:31.508Z,15.36
2023-05-01T00:22:58.434Z,15.43
2023-05-01T00:25:25.356Z,15.45
2023-05-01T00:27:52.124Z,15.46
2023-05-01T00:30:18.899Z,15.52
2023-05-01T00:32:45.939Z,15.59
2023-05-01T00:35:13.006Z,15.63
2023-05-01T00:37:39.924Z,15.66
2023-05-01T00:40:08.479Z,15.69
2023-05-01T00:42:36.702Z,15.71
2023-05-01T00:45:03.793Z,15.75
2023-05-01T00:47:31.019Z,15.80
2023-05-01T00:49:58.162Z,15.78
2023-05-01T00:52:25.580Z,15.79
2023-05-01T00:54:52.762Z,15.79
2023-05-01T00:57:20.234Z,15.80
2023-05-01T00:59:47.778Z,15.79
2023-05-01T01:02:15.126Z,15.78
2023-05-01T01:04:44.445Z,15.79
2023-05-01T01:07:31.945Z,15.79
2023-05-01T01:10:11.037Z,15.76
2023-05-01T01:13:03.974Z,15.73
2023-05-01T01:15:50.570Z,15.67
2023-05-01T01:18:25.164Z,15.69
2023-05-01T01:20:56.173Z,15.64
2023-05-01T01:23:38.789Z,15.64
2023-05-01T01:26:24.610Z,15.68
2023-05-01T01:29:22.505Z,15.64
2023-05-01T01:31:49.269Z,15.55
2023-05-01T01:34:27.280Z,15.49
2023-05-01T01:37:02.159Z,15.41
2023-05-01T01:39:30.337Z,15.36
2023-05-01T01:44:43.894Z,14.32
2023-05-01T01:47:12.281Z,15.27
2023-05-01T01:49:42.805Z,15.31
2023-05-01T01:52:10.877Z,15.34
2023-05-01T01:54:39.492Z,15.25
2023-05-01T01:57:07.656Z,15.22
2023-05-01T01:59:35.491Z,15.17
2023-05-01T02:02:03.572Z,14.99
2023-05-01T02:04:30.917Z,14.91
2023-05-01T02:06:58.504Z,14.87
2023-05-01T02:09:27.066Z,14.81
2023-05-01T02:11:55.986Z,14.94
2023-05-01T02:14:24.235Z,14.94
2023-05-01T02:16:51.518Z,14.97
2023-05-01T02:19:19.266Z,14.93
2023-05-01T02:21:46.902Z,14.92
2023-05-01T02:24:14.572Z,14.88
2023-05-01T02:26:48.140Z,14.85
2023-05-01T02:29:15.175Z,14.89
2023-05-01T02:31:42.296Z,14.94
2023-05-01T02:34:09.811Z,14.97
2023-05-01T02:36:36.829Z,14.93
2023-05-01T02:39:04.388Z,15.01
2023-05-01T02:41:31.518Z,15.05
2023-05-01T02:44:04.355Z,15.01
2023-05-01T02:46:37.096Z,14.98
2023-05-01T02:49:04.186Z,14.99
2023-05-01T02:51:34.105Z,14.98
2023-05-01T02:54:01.356Z,14.94
2023-05-01T02:56:29.149Z,14.94
2023-05-01T02:58:57.126Z,15.00
2023-05-01T03:01:24.389Z,14.98
2023-05-01T03:03:51.880Z,14.94
2023-05-01T03:06:19.799Z,14.96
2023-05-01T03:08:48.072Z,14.94
2023-05-01T03:11:15.941Z,14.94
2023-05-01T03:13:43.797Z,14.99
2023-05-01T03:16:11.378Z,14.91
2023-05-01T03:18:38.580Z,14.94
2023-05-01T03:21:05.742Z,14.91
2023-05-01T03:23:33.277Z,14.93
2023-05-01T03:26:00.328Z,14.92
2023-05-01T03:28:27.526Z,14.98
2023-05-01T03:30:54.913Z,14.94
2023-05-01T03:33:22.291Z,14.95
2023-05-01T03:35:49.590Z,14.96
2023-05-01T03:38:16.777Z,15.01
2023-05-01T03:41:02.565Z,15.01
2023-05-01T03:43:47.908Z,15.00
2023-05-01T03:46:28.669Z,14.97
2023-05-01T03:48:55.998Z,14.94
2023-05-01T03:51:23.544Z,14.98
2023-05-01T03:53:52.431Z,15.00
2023-05-01T03:56:20.194Z,15.04
2023-05-01T03:58:47.660Z,14.94
2023-05-01T04:01:15.421Z,14.98
2023-05-01T04:03:44.275Z,15.02
2023-05-01T04:06:11.718Z,15.07
2023-05-01T04:08:39.079Z,15.11
2023-05-01T04:11:06.951Z,15.08
2023-05-01T04:13:33.922Z,15.15
2023-05-01T04:16:02.392Z,15.24
2023-05-01T04:18:29.457Z,15.29
2023-05-01T04:20:59.229Z,15.38
2023-05-01T04:23:26.753Z,15.50
2023-05-01T04:25:55.216Z,15.53
2023-05-01T04:28:22.443Z,15.62
2023-05-01T04:30:49.549Z,15.73
2023-05-01T04:33:16.904Z,15.85
2023-05-01T04:35:44.230Z,15.94
2023-05-01T04:38:11.842Z,15.97
2023-05-01T04:40:39.639Z,16.11
2023-05-01T04:43:06.612Z,16.18
2023-05-01T04:45:33.757Z,16.29
2023-05-01T04:48:01.873Z,16.35
2023-05-01T04:50:29.061Z,16.43
2023-05-01T04:52:56.625Z,16.49
2023-05-01T04:55:23.935Z,16.53
2023-05-01T04:58:11.591Z,16.63
2023-05-01T05:00:39.465Z,16.70
2023-05-01T05:03:08.306Z,16.73
2023-05-01T05:05:35.656Z,16.74
2023-05-01T05:08:04.451Z,16.84
2023-05-01T05:10:36.470Z,16.93
2023-05-01T05:13:21.811Z,17.01
2023-05-01T05:15:54.966Z,17.06
2023-05-01T05:18:23.242Z,17.14
2023-05-01T05:20:51.175Z,17.15
2023-05-01T05:23:18.420Z,17.23
2023-05-01T05:25:45.670Z,17.25
2023-05-01T05:28:13.533Z,17.31
2023-05-01T05:30:40.868Z,17.35
2023-05-01T05:33:09.155Z,17.35
2023-05-01T05:35:36.734Z,17.58
2023-05-01T05:38:04.472Z,17.70
2023-05-01T05:40:33.671Z,17.77
2023-05-01T05:43:01.270Z,17.79
2023-05-01T05:45:29.493Z,17.86
2023-05-01T05:47:57.422Z,17.87
2023-05-01T05:50:25.570Z,17.97
2023-05-01T05:52:52.708Z,18.02
2023-05-01T05:55:19.874Z,18.11
2023-05-01T05:57:59.440Z,18.18
2023-05-01T06:00:26.793Z,18.23
2023-05-01T06:02:54.427Z,18.36
2023-05-01T06:05:22.152Z,18.40
2023-05-01T06:07:49.432Z,18.50
2023-05-01T06:10:17.266Z,18.57
2023-05-01T06:12:51.875Z,18.69
2023-05-01T06:15:25.200Z,18.64
2023-05-01T06:17:54.055Z,18.62
2023-05-01T06:20:21.326Z,18.75
2023-05-01T06:22:49.294Z,18.79
2023-05-01T06:25:21.895Z,18.95
2023-05-01T06:27:52.893Z,19.01
2023-05-01T06:30:22.148Z,19.07
2023-05-01T06:32:50.645Z,19.05
2023-05-01T06:35:17.982Z,19.11
2023-05-01T06:37:45.081Z,19.17
2023-05-01T06:40:12.428Z,19.18
2023-05-01T06:42:39.922Z,19.35
2023-05-01T06:45:08.160Z,19.43
2023-05-01T06:47:35.312Z,19.52
2023-05-01T06:50:05.265Z,19.59
2023-05-01T06:52:33.812Z,19.71
2023-05-01T06:55:01.505Z,19.81
2023-05-01T06:57:28.854Z,19.80
2023-05-01T06:59:56.215Z,19.84
2023-05-01T07:02:23.594Z,19.87
2023-05-01T07:04:51.097Z,19.84
2023-05-01T07:07:18.177Z,19.89
2023-05-01T07:09:45.485Z,20.03
2023-05-01T07:12:12.617Z,20.08
2023-05-01T07:14:41.743Z,20.20
2023-05-01T07:17:09.464Z,20.19
2023-05-01T07:19:36.604Z,20.23
2023-05-01T07:22:05.099Z,20.31
2023-05-01T07:24:32.286Z,20.49
2023-05-01T07:27:00.236Z,20.52
2023-05-01T07:29:27.346Z,20.62
2023-05-01T07:31:54.754Z,20.72
2023-05-01T07:34:22.082Z,20.80
2023-05-01T07:36:49.309Z,20.88
2023-05-01T07:39:17.879Z,21.02
2023-05-01T07:41:45.222Z,21.08
2023-05-01T07:44:12.352Z,21.22
2023-05-01T07:46:39.607Z,21.32
2023-05-01T07:49:06.751Z,21.33
2023-05-01T07:51:33.816Z,21.32
2023-05-01T07:54:04.780Z,21.44
2023-05-01T07:56:32.136Z,21.45
2023-05-01T07:58:59.412Z,21.58
2023-05-01T08:01:26.640Z,21.64
2023-05-01T08:03:53.913Z,21.63
2023-05-01T08:06:21.243Z,21.57
2023-05-01T08:08:48.550Z,21.64
2023-05-01T08:11:16.736Z,21.67
2023-05-01T08:13:43.822Z,21.68
2023-05-01T08:16:11.035Z,21.73
2023-05-01T08:18:38.233Z,21.68
2023-05-01T08:21:05.564Z,21.66
2023-05-01T08:23:33.185Z,21.80
2023-05-01T08:26:00.567Z,21.81
2023-05-01T08:28:27.600Z,21.86
2023-05-01T08:30:54.697Z,21.93
2023-05-01T08:33:21.969Z,21.94
2023-05-01T08:35:49.257Z,21.97
2023-05-01T08:38:16.558Z,22.05
2023-05-01T08:40:47.630Z,22.07
2023-05-01T08:43:14.568Z,22.12
2023-05-01T08:45:41.578Z,22.17
2023-05-01T08:48:10.619Z,22.33
2023-05-01T08:50:37.820Z,22.46
2023-05-01T08:53:05.583Z,22.55
2023-05-01T08:55:32.796Z,22.52
2023-05-01T08:58:00.111Z,22.50
2023-05-01T09:00:28.040Z,22.58
2023-05-01T09:02:55.469Z,22.66
2023-05-01T09:05:22.671Z,22.82
2023-05-01T09:07:49.906Z,22.84
2023-05-01T09:10:18.496Z,22.83
2023-05-01T09:12:48.156Z,22.79
2023-05-01T09:15:15.568Z,22.89
2023-05-01T09:17:42.872Z,22.95
2023-05-01T09:20:10.510Z,23.04
2023-05-01T09:22:37.707Z,23.10
2023-05-01T09:25:05.435Z,23.14
2023-05-01T09:27:35.246Z,23.19
2023-05-01T09:30:02.366Z,23.22
2023-05-01T09:32:30.010Z,23.33
2023-05-01T09:35:10.719Z,23.39
2023-05-01T09:37:38.183Z,23.41
2023-05-01T09:40:12.315Z,23.46
2023-05-01T09:42:40.159Z,23.56
2023-05-01T09:45:16.320Z,23.39
2023-05-01T09:47:46.589Z,23.51
2023-05-01T09:50:29.974Z,23.57
2023-05-01T09:52:57.296Z,23.62
2023-05-01T09:55:25.920Z,23.67
2023-05-01T09:57:53.498Z,23.68
2023-05-01T10:00:22.423Z,23.69
2023-05-01T10:02:50.384Z,23.67
2023-05-01T10:05:18.725Z,23.72
2023-05-01T10:08:02.600Z,23.68
2023-05-01T10:10:30.003Z,23.66
2023-05-01T10:12:57.306Z,23.53
2023-05-01T10:15:27.009Z,23.69
2023-05-01T10:17:55.149Z,23.82
2023-05-01T10:20:23.207Z,23.97
2023-05-01T10:22:50.799Z,23.95
2023-05-01T10:25:18.208Z,23.93
2023-05-01T10:27:45.628Z,23.92
2023-05-01T10:30:13.049Z,24.03
2023-05-01T10:32:41.637Z,24.11
2023-05-01T10:35:11.898Z,24.20
2023-05-01T10:37:39.098Z,24.21
2023-05-01T10:40:43.744Z,24.16
2023-05-01T10:43:28.781Z,24.07
2023-05-01T10:46:22.086Z,23.98
2023-05-01T10:48:56.364Z,23.96
2023-05-01T10:51:28.194Z,24.00
2023-05-01T10:54:14.255Z,24.13
2023-05-01T10:56:43.542Z,24.23
2023-05-01T10:59:11.765Z,24.32
2023-05-01T11:01:40.196Z,24.40
2023-05-01T11:04:08.554Z,24.48
2023-05-01T11:06:36.775Z,24.57
2023-05-01T11:09:39.568Z,24.56
2023-05-01T11:12:07.274Z,24.57
2023-05-01T11:15:08.953Z,24.55
2023-05-01T11:17:43.281Z,24.59
2023-05-01T11:20:11.958Z,24.67
2023-05-01T11:22:40.913Z,24.75
2023-05-01T11:25:27.971Z,24.83
2023-05-01T11:27:56.870Z,24.91
2023-05-01T11:30:24.101Z,24.93
2023-05-01T11:32:51.637Z,24.98
2023-05-01T11:35:23.181Z,24.94
2023-05-01T11:37:51.507Z,24.94
2023-05-01T11:40:22.971Z,24.91
2023-05-01T11:42:51.256Z,25.01
2023-05-01T11:45:19.725Z,25.10
2023-05-01T11:47:47.200Z,25.21
2023-05-01T11:50:14.442Z,25.22
2023-05-01T11:52:46.285Z,25.16
2023-05-01T11:55:13.470Z,25.09
2023-05-01T11:57:51.076Z,25.15
2023-05-01T12:00:28.605Z,25.24
2023-05-01T12:03:00.524Z,25.33
2023-05-01T12:05:28.786Z,25.37
2023-05-01T12:08:18.950Z,25.37
2023-05-01T12:10:58.532Z,25.41
2023-05-01T12:13:26.377Z,25.51
2023-05-01T12:15:54.668Z,25.57
2023-05-01T12:18:22.939Z,25.60
2023-05-01T12:20:52.340Z,25.55
2023-05-01T12:23:20.994Z,25.63
2023-05-01T12:25:48.241Z,25.66
2023-05-01T12:28:17.351Z,25.75
2023-05-01T12:30:46.047Z,25.70
2023-05-01T12:33:13.925Z,25.75
2023-05-01T12:35:41.363Z,25.83
2023-05-01T12:38:19.217Z,25.99
2023-05-01T12:40:55.921Z,26.04
2023-05-01T12:43:30.294Z,25.92
2023-05-01T12:45:57.589Z,25.70
2023-05-01T12:48:24.933Z,25.62
2023-05-01T12:50:55.034Z,25.66
2023-05-01T12:53:23.585Z,25.81
2023-05-01T12:55:53.115Z,25.99
2023-05-01T12:58:20.307Z,25.97
2023-05-01T13:00:54.902Z,25.90
2023-05-01T13:03:26.951Z,25.76
2023-05-01T13:05:55.168Z,25.68
2023-05-01T13:08:29.626Z,25.71
2023-05-01T13:10:58.185Z,25.78
2023-05-01T13:13:26.928Z,25.87
2023-05-01T13:15:54.304Z,25.92
2023-05-01T13:18:21.658Z,25.87
2023-05-01T13:20:48.982Z,25.90
2023-05-01T13:23:16.115Z,25.94
2023-05-01T13:25:43.440Z,25.90
2023-05-01T13:28:11.905Z,25.91
2023-05-01T13:30:39.600Z,25.85
2023-05-01T13:33:08.009Z,25.87
2023-05-01T13:35:35.978Z,25.88
2023-05-01T13:38:03.286Z,25.85
2023-05-01T13:40:30.525Z,25.98
2023-05-01T13:42:57.541Z,26.07
2023-05-01T13:45:24.680Z,26.22
2023-05-01T13:47:52.189Z,26.30
2023-05-01T13:50:19.838Z,26.24
2023-05-01T13:52:47.830Z,26.32
2023-05-01T13:55:15.003Z,26.37
2023-05-01T13:57:42.615Z,26.58
2023-05-01T14:00:49.675Z,25.75
2023-05-01T14:03:18.976Z,26.72
2023-05-01T14:05:46.210Z,26.87
2023-05-01T14:08:13.346Z,26.93
2023-05-01T14:10:40.440Z,26.94
2023-05-01T14:13:07.912Z,26.91
2023-05-01T14:15:35.589Z,26.80
2023-05-01T14:18:06.953Z,26.75
2023-05-01T14:20:34.166Z,26.75
2023-05-01T14:23:01.502Z,26.74
2023-05-01T14:25:35.536Z,26.58
2023-05-01T14:28:06.120Z,26.52
2023-05-01T14:30:38.610Z,26.50
2023-05-01T14:33:11.330Z,25.95
2023-05-01T14:35:48.673Z,24.98
2023-05-01T14:38:18.107Z,24.93
2023-05-01T14:40:45.533Z,24.80
2023-05-01T14:43:22.335Z,24.78
2023-05-01T14:45:50.309Z,24.87
2023-05-01T14:48:21.253Z,24.93
2023-05-01T14:50:48.508Z,24.99
2023-05-01T14:53:15.921Z,25.01
2023-05-01T14:55:43.048Z,24.95
2023-05-01T14:58:10.258Z,24.96
2023-05-01T15:00:37.812Z,24.98
2023-05-01T15:03:04.984Z,25.00
2023-05-01T15:05:32.505Z,25.06
2023-05-01T15:08:00.776Z,25.13
2023-05-01T15:10:29.034Z,25.25
2023-05-01T15:12:56.291Z,25.47
2023-05-01T15:15:23.448Z,25.81
2023-05-01T15:17:52.954Z,26.20
2023-05-01T15:20:20.264Z,26.65
2023-05-01T15:22:47.385Z,27.10
2023-05-01T15:25:15.002Z,27.50
2023-05-01T15:27:43.884Z,27.91
2023-05-01T15:30:12.084Z,28.03
2023-05-01T15:32:39.235Z,28.49
2023-05-01T15:35:06.528Z,28.78
2023-05-01T15:37:33.784Z,28.82
2023-05-01T15:40:01.310Z,28.94
2023-05-01T15:42:28.444Z,28.78
2023-05-01T15:44:55.494Z,28.65
2023-05-01T15:47:22.580Z,28.59
2023-05-01T15:49:50.134Z,28.33
2023-05-01T15:52:17.388Z,27.86
2023-05-01T15:54:46.897Z,27.35
2023-05-01T15:57:14.453Z,26.88
2023-05-01T15:59:41.577Z,26.47
2023-05-01T16:02:09.051Z,26.19
2023-05-01T16:04:36.419Z,25.95
2023-05-01T16:07:03.602Z,25.58
2023-05-01T16:09:32.028Z,25.38
2023-05-01T16:12:00.028Z,25.12
2023-05-01T16:14:27.309Z,24.82
2023-05-01T16:16:54.702Z,24.49
2023-05-01T16:19:21.989Z,24.18
2023-05-01T16:21:49.144Z,23.85
2023-05-01T16:24:16.220Z,23.59
2023-05-01T16:26:43.756Z,23.37
2023-05-01T16:29:11.028Z,23.11
2023-05-01T16:31:39.594Z,22.92
2023-05-01T16:34:07.672Z,22.74
2023-05-01T16:36:36.334Z,22.71
2023-05-01T16:39:04.281Z,23.08
2023-05-01T16:41:31.866Z,23.68
2023-05-01T16:43:59.656Z,23.62
2023-05-01T16:46:26.730Z,23.53
2023-05-01T16:48:53.860Z,23.37
2023-05-01T16:51:21.165Z,23.17
2023-05-01T16:53:48.289Z,23.01
2023-05-01T16:56:16.003Z,22.84
2023-05-01T16:58:44.077Z,22.69
2023-05-01T17:01:11.449Z,22.54
2023-05-01T17:03:38.899Z,22.32
2023-05-01T17:06:06.299Z,22.17
2023-05-01T17:08:33.405Z,22.08
2023-05-01T17:11:00.916Z,21.97
2023-05-01T17:13:28.092Z,21.82
2023-05-01T17:15:55.291Z,21.69
2023-05-01T17:18:22.551Z,21.56
2023-05-01T17:20:49.591Z,21.43
2023-05-01T17:23:17.333Z,21.28
2023-05-01T17:25:45.052Z,21.21
2023-05-01T17:28:12.334Z,21.08
2023-05-01T17:30:39.489Z,20.96
2023-05-01T17:33:06.946Z,20.84
2023-05-01T17:35:34.241Z,20.70
2023-05-01T17:38:01.322Z,20.58
2023-05-01T17:40:28.587Z,20.46
2023-05-01T17:42:55.763Z,20.34
2023-05-01T17:45:22.897Z,20.21
2023-05-01T17:47:50.100Z,20.11
2023-05-01T17:50:18.281Z,19.16
2023-05-01T17:52:45.511Z,19.58
2023-05-01T17:55:14.943Z,19.59
2023-05-01T17:57:44.463Z,18.85
2023-05-01T18:00:12.467Z,18.13
2023-05-01T18:02:39.920Z,17.50
2023-05-01T18:05:07.757Z,17.32
2023-05-01T18:07:34.991Z,17.55
2023-05-01T18:10:02.396Z,17.03
2023-05-01T18:12:30.213Z,16.96
2023-05-01T18:14:57.304Z,17.27
2023-05-01T18:17:25.395Z,17.30
2023-05-01T18:19:52.672Z,17.22
2023-05-01T18:22:20.374Z,16.71
2023-05-01T18:24:47.824Z,16.58
2023-05-01T18:27:14.950Z,16.90
2023-05-01T18:29:42.242Z,16.62
2023-05-01T18:32:12.785Z,16.38
2023-05-01T18:34:41.008Z,16.35
2023-05-01T18:37:08.452Z,16.48
2023-05-01T18:39:35.681Z,16.30
2023-05-01T18:42:04.020Z,16.54
2023-05-01T18:44:31.597Z,16.81
2023-05-01T18:46:58.846Z,16.61
2023-05-01T18:49:26.142Z,16.55
2023-05-01T18:51:53.287Z,15.96
2023-05-01T18:54:20.565Z,16.03
2023-05-01T18:56:47.778Z,15.95
2023-05-01T18:59:14.742Z,15.98
2023-05-01T19:01:41.997Z,15.83
2023-05-01T19:04:09.180Z,16.23
2023-05-01T19:06:36.451Z,16.28
2023-05-01T19:09:03.812Z,16.24
2023-05-01T19:11:32.001Z,16.04
2023-05-01T19:13:59.083Z,15.88
2023-05-01T19:16:26.483Z,15.80
2023-05-01T19:18:53.820Z,15.80
2023-05-01T19:21:21.408Z,15.65
2023-05-01T19:23:49.347Z,15.80
2023-05-01T19:26:16.692Z,15.92
2023-05-01T19:28:43.823Z,15.86
2023-05-01T19:31:12.428Z,15.81
2023-05-01T19:33:41.390Z,15.80
2023-05-01T19:36:08.416Z,15.76
2023-05-01T19:38:35.815Z,15.72
2023-05-01T19:41:03.285Z,15.68
2023-05-01T19:43:30.563Z,15.40
2023-05-01T19:45:57.852Z,15.42
2023-05-01T19:48:25.001Z,16.98
2023-05-01T19:50:52.235Z,17.10
2023-05-01T19:53:19.378Z,17.16
2023-05-01T19:55:47.995Z,17.20
2023-05-01T19:58:15.810Z,17.19
2023-05-01T20:00:42.966Z,17.21
2023-05-01T20:03:10.991Z,17.25
2023-05-01T20:05:38.215Z,17.30
2023-05-01T20:08:06.125Z,17.34
2023-05-01T20:10:33.439Z,17.35
2023-05-01T20:13:00.779Z,17.37
2023-05-01T20:15:28.007Z,17.37
2023-05-01T20:17:55.189Z,17.36
2023-05-01T20:20:22.434Z,17.36
2023-05-01T20:22:52.458Z,17.33
2023-05-01T20:25:19.531Z,17.34
2023-05-01T20:27:46.624Z,17.31
2023-05-01T20:30:13.790Z,17.25
2023-05-01T20:32:44.179Z,17.19
2023-05-01T20:35:11.826Z,17.17
2023-05-01T20:37:38.979Z,17.11
2023-05-01T20:40:07.286Z,17.14
2023-05-01T20:42:34.388Z,17.17
2023-05-01T20:45:01.717Z,17.21
2023-05-01T20:47:29.753Z,17.20
2023-05-01T20:49:57.592Z,17.20
2023-05-01T20:52:24.806Z,17.16
2023-05-01T20:54:51.948Z,17.09
2023-05-01T20:57:19.242Z,17.02
2023-05-01T20:59:48.122Z,16.96
2023-05-01T21:02:16.469Z,16.87
2023-05-01T21:04:43.703Z,16.79
2023-05-01T21:07:10.886Z,16.71
2023-05-01T21:09:38.151Z,16.62
2023-05-01T21:12:06.435Z,16.53
2023-05-01T21:14:33.577Z,16.45
2023-05-01T21:17:00.950Z,16.42
2023-05-01T21:19:28.276Z,16.37
2023-05-01T21:21:55.657Z,16.32
2023-05-01T21:24:24.174Z,16.24
2023-05-01T21:26:54.621Z,16.19
2023-05-01T21:29:21.794Z,16.13
2023-05-01T21:31:49.288Z,16.10
2023-05-01T21:34:17.864Z,16.07
2023-05-01T21:36:45.425Z,16.03
2023-05-01T21:39:12.991Z,15.99
2023-05-01T21:41:40.763Z,15.94
2023-05-01T21:44:07.884Z,15.90
2023-05-01T21:46:36.094Z,15.86
2023-05-01T21:49:03.701Z,15.80
2023-05-01T21:51:32.149Z,15.76
2023-05-01T21:54:02.455Z,15.73
2023-05-01T21:56:29.660Z,15.66
2023-05-01T21:59:01.336Z,15.62
2023-05-01T22:01:28.633Z,15.59
2023-05-01T22:03:56.975Z,15.56
2023-05-01T22:06:24.887Z,15.53
2023-05-01T22:08:52.103Z,15.48
2023-05-01T22:11:20.823Z,15.46
2023-05-01T22:13:48.076Z,15.39
2023-05-01T22:16:15.329Z,15.36
2023-05-01T22:18:42.433Z,15.36
2023-05-01T22:21:09.608Z,15.33
2023-05-01T22:23:36.835Z,15.31
2023-05-01T22:26:03.949Z,15.28
2023-05-01T22:28:31.215Z,15.22
2023-05-01T22:30:59.342Z,15.18
2023-05-01T22:33:26.885Z,15.15
2023-05-01T22:35:54.057Z,15.19
2023-05-01T22:38:21.232Z,15.24
2023-05-01T22:40:48.438Z,15.20
2023-05-01T22:43:15.790Z,15.12
2023-05-01T22:45:43.125Z,15.08
2023-05-01T22:48:10.887Z,15.07
2023-05-01T22:50:38.148Z,15.09
2023-05-01T22:53:05.915Z,15.10
2023-05-01T22:55:33.120Z,15.02
2023-05-01T22:58:00.245Z,14.97
2023-05-01T23:00:27.549Z,14.96
2023-05-01T23:02:54.690Z,14.92
2023-05-01T23:05:21.953Z,14.90
2023-05-01T23:07:48.961Z,14.97
2023-05-01T23:10:16.161Z,14.94
2023-05-01T23:12:44.081Z,14.91
2023-05-01T23:15:11.497Z,14.88
2023-05-01T23:17:38.681Z,14.86
2023-05-01T23:20:09.842Z,14.76
2023-05-01T23:22:40.624Z,14.72
2023-05-01T23:25:08.437Z,14.69
2023-05-01T23:27:40.291Z,14.68
2023-05-01T23:30:08.278Z,14.67
2023-05-01T23:32:35.282Z,14.65
2023-05-01T23:35:11.869Z,14.60
2023-05-01T23:37:39.181Z,14.53
2023-05-01T23:40:07.362Z,14.52
2023-05-01T23:42:34.890Z,14.50
2023-05-01T23:45:01.948Z,14.53
2023-05-01T23:47:29.453Z,14.52
2023-05-01T23:49:56.888Z,14.46
2023-05-01T23:52:24.070Z,14.43
2023-05-01T23:54:51.266Z,14.39
2023-05-01T23:57:18.447Z,14.38
2023-05-01T23:59:45.391Z,14.38
